Time;durP1;ratioP1;P1;durP2;ratioP2;P2;SDS_P1;SDS_P2;PMS_P1;PMS_P2;Temp;Humidity;BMP_temperature;BMP_pressure;BME280_temperature;BME280_humidity;BME280_pressure;Samples;Min_cycle;Max_cycle;Signal;HPM_P1;HPM_P2
2022/01/22 00:00:09;;;;;;;;;;;23.00;24.30;;;;;;5128556;27;19977;-46
2022/01/22 00:02:35;;;;;;;;;;;23.10;24.30;;;;;;5123015;27;19923;-45
2022/01/22 00:05:01;;;;;;;;;;;23.10;24.20;;;;;;5124581;27;19923;-52
2022/01/22 00:07:27;;;;;;;;;;;23.00;24.30;;;;;;5127105;27;19932;-47
2022/01/22 00:09:59;;;;;;;;;;;23.10;24.10;;;;;;5122907;27;19976;-45
2022/01/22 00:12:43;;;;;;;;;;;23.20;24.10;;;;;;5127868;27;19923;-45
2022/01/22 00:15:10;;;;;;;;;;;23.10;24.10;;;;;;5125411;27;20822;-51
2022/01/22 00:17:36;;;;;;;;;;;23.20;24.10;;;;;;5121801;27;19927;-49
2022/01/22 00:20:02;;;;;;;;;;;23.20;24.10;;;;;;5128078;27;20068;-47
2022/01/22 00:22:31;;;;;;;;;;;23.30;24.00;;;;;;5123044;27;19931;-46
2022/01/22 00:24:58;;;;;;;;;;;23.30;24.00;;;;;;5123007;27;19933;-48
2022/01/22 00:27:24;;;;;;;;;;;23.10;24.00;;;;;;5128277;27;20429;-52
2022/01/22 00:29:50;;;;;;;;;;;23.10;24.00;;;;;;5121892;27;20018;-48
2022/01/22 00:32:15;;;;;;;;;;;23.00;24.20;;;;;;5122567;27;20022;-48
2022/01/22 00:34:41;;;;;;;;;;;23.00;24.20;;;;;;5126055;27;19924;-49
2022/01/22 00:37:07;;;;;;;;;;;23.00;24.20;;;;;;5122462;27;19923;-50
2022/01/22 00:39:34;;;;;;;;;;;23.00;24.20;;;;;;5127616;27;19930;-48
2022/01/22 00:42:08;;;;;;;;;;;22.90;24.30;;;;;;5122740;27;19932;-48
2022/01/22 00:44:34;;;;;;;;;;;23.00;24.20;;;;;;5122589;27;20367;-49
2022/01/22 00:47:00;;;;;;;;;;;23.00;24.20;;;;;;5127790;27;19931;-47
2022/01/22 00:49:26;;;;;;;;;;;23.00;24.30;;;;;;5103449;27;19923;-52
2022/01/22 00:51:52;;;;;;;;;;;22.90;24.40;;;;;;5121967;27;20298;-49
2022/01/22 00:54:18;;;;;;;;;;;22.90;24.40;;;;;;5125867;27;20295;-46
2022/01/22 00:56:43;;;;;;;;;;;22.90;24.40;;;;;;5121673;27;19923;-48
2022/01/22 00:59:09;;;;;;;;;;;22.90;24.40;;;;;;5124569;27;19934;-54
2022/01/22 01:01:35;;;;;;;;;;;22.90;24.40;;;;;;5125424;27;19928;-48
2022/01/22 01:04:02;;;;;;;;;;;22.90;24.40;;;;;;5121981;27;20294;-48
2022/01/22 01:06:28;;;;;;;;;;;22.90;24.40;;;;;;5126889;27;19923;-48
2022/01/22 01:08:54;;;;;;;;;;;23.00;24.40;;;;;;5121815;27;20405;-46
2022/01/22 01:11:21;;;;;;;;;;;23.10;24.20;;;;;;5120067;27;19952;-49
2022/01/22 01:13:51;;;;;;;;;;;23.00;24.20;;;;;;5108624;27;20319;-46
2022/01/22 01:33:03;;;;;;;;;;;23.20;24.10;;;;;;5126804;27;19929;-46
2022/01/22 01:35:31;;;;;;;;;;;23.10;24.10;;;;;;5121384;27;20313;-47
2022/01/22 01:37:59;;;;;;;;;;;23.10;24.10;;;;;;5122365;27;19923;-57
2022/01/22 01:40:27;;;;;;;;;;;23.20;24.10;;;;;;5126714;27;19949;-46
2022/01/22 01:43:06;;;;;;;;;;;23.20;24.00;;;;;;5120907;27;19928;-46
2022/01/22 01:45:32;;;;;;;;;;;23.20;24.00;;;;;;5125396;27;19928;-53
2022/01/22 01:48:00;;;;;;;;;;;23.20;24.10;;;;;;5121337;27;20295;-46
2022/01/22 01:50:27;;;;;;;;;;;23.30;24.00;;;;;;5120493;27;19923;-46
2022/01/22 01:53:25;;;;;;;;;;;23.30;23.90;;;;;;5126230;27;20370;-50
2022/01/22 01:58:14;;;;;;;;;;;23.20;24.00;;;;;;5121386;28;19987;-46
2022/01/22 02:00:40;;;;;;;;;;;23.30;24.00;;;;;;5126700;28;20612;-45
2022/01/22 02:03:06;;;;;;;;;;;23.20;24.00;;;;;;5120391;28;19953;-45
2022/01/22 02:05:34;;;;;;;;;;;23.40;23.90;;;;;;5121105;28;19923;-54
2022/01/22 02:08:00;;;;;;;;;;;23.30;23.90;;;;;;5124723;28;20018;-51
2022/01/22 02:10:29;;;;;;;;;;;23.20;24.00;;;;;;5120832;28;19928;-50
2022/01/22 02:23:44;;;;;;;;;;;23.10;24.10;;;;;;5126828;28;19924;-49
2022/01/22 02:26:10;;;;;;;;;;;23.10;24.20;;;;;;5118980;28;19956;-50
2022/01/22 02:28:36;;;;;;;;;;;23.20;24.10;;;;;;5120640;28;19927;-49
2022/01/22 02:31:28;;;;;;;;;;;23.20;24.10;;;;;;5127256;27;20022;-48
2022/01/22 02:33:59;;;;;;;;;;;23.20;24.10;;;;;;5124586;27;19946;-48
2022/01/22 02:36:32;;;;;;;;;;;23.20;24.00;;;;;;5124774;27;20060;-48
2022/01/22 02:41:29;;;;;;;;;;;23.20;24.00;;;;;;5124750;27;19924;-45
2022/01/22 02:43:55;;;;;;;;;;;23.30;23.90;;;;;;5122580;27;20505;-46
2022/01/22 02:46:23;;;;;;;;;;;23.30;24.00;;;;;;5130041;27;20009;-57
2022/01/22 02:48:49;;;;;;;;;;;23.00;24.20;;;;;;5124247;27;19923;-51
2022/01/22 02:51:14;;;;;;;;;;;22.80;24.50;;;;;;5130278;27;19937;-54
2022/01/22 02:53:40;;;;;;;;;;;22.80;24.50;;;;;;5124841;27;19930;-52
2022/01/22 02:56:06;;;;;;;;;;;22.80;24.60;;;;;;5124703;27;20376;-53
2022/01/22 02:58:32;;;;;;;;;;;22.70;24.60;;;;;;5129238;27;19930;-52
2022/01/22 03:00:58;;;;;;;;;;;22.70;24.60;;;;;;5124376;27;19923;-54
2022/01/22 03:03:23;;;;;;;;;;;22.60;24.70;;;;;;5122451;27;19923;-57
2022/01/22 03:05:49;;;;;;;;;;;22.70;24.70;;;;;;5129521;27;20430;-54
2022/01/22 03:08:15;;;;;;;;;;;22.60;24.80;;;;;;5123968;27;19978;-56
2022/01/22 03:10:45;;;;;;;;;;;22.70;24.70;;;;;;5129062;27;19927;-56
2022/01/22 03:16:02;;;;;;;;;;;22.50;25.00;;;;;;5123762;27;19931;-53
2022/01/22 03:21:08;;;;;;;;;;;22.40;25.10;;;;;;5126827;27;20802;-50
2022/01/22 03:29:09;;;;;;;;;;;22.50;25.00;;;;;;5129551;27;20004;-49
2022/01/22 03:31:36;;;;;;;;;;;22.50;24.90;;;;;;5123927;27;20400;-52
2022/01/22 03:34:02;;;;;;;;;;;22.40;25.00;;;;;;5125101;27;19990;-58
2022/01/22 03:36:30;;;;;;;;;;;22.40;24.90;;;;;;5127676;27;19929;-51
2022/01/22 03:38:56;;;;;;;;;;;22.40;25.00;;;;;;5122148;27;20045;-50
2022/01/22 03:41:23;;;;;;;;;;;22.40;25.00;;;;;;5128344;27;19923;-51
2022/01/22 03:43:50;;;;;;;;;;;22.40;25.10;;;;;;5121978;27;20302;-50
2022/01/22 03:46:16;;;;;;;;;;;22.40;25.20;;;;;;5123786;27;20285;-50
2022/01/22 03:48:41;;;;;;;;;;;22.40;25.10;;;;;;5129390;27;19964;-52
2022/01/22 03:51:07;;;;;;;;;;;22.40;25.10;;;;;;5123660;27;19976;-49
2022/01/22 03:53:33;;;;;;;;;;;22.50;25.10;;;;;;5122708;27;20602;-52
2022/01/22 03:58:28;;;;;;;;;;;22.40;25.10;;;;;;5121529;27;19928;-52
2022/01/22 04:01:11;;;;;;;;;;;22.40;25.20;;;;;;5128484;27;20010;-51
2022/01/22 04:03:41;;;;;;;;;;;22.40;25.10;;;;;;5128158;27;20400;-52
2022/01/22 04:08:53;;;;;;;;;;;22.50;25.00;;;;;;5125199;27;20391;-59
2022/01/22 04:11:19;;;;;;;;;;;22.50;25.00;;;;;;5126948;27;20298;-50
2022/01/22 04:13:48;;;;;;;;;;;22.50;25.00;;;;;;5122773;27;20657;-51
2022/01/22 04:16:14;;;;;;;;;;;22.50;24.90;;;;;;5108393;27;19923;-55
2022/01/22 04:26:57;;;;;;;;;;;22.50;24.80;;;;;;5128457;27;20360;-51
2022/01/22 04:29:23;;;;;;;;;;;22.50;24.80;;;;;;5122519;27;20325;-51
2022/01/22 04:31:49;;;;;;;;;;;22.50;24.80;;;;;;5127792;27;19927;-53
2022/01/22 04:34:15;;;;;;;;;;;22.70;24.70;;;;;;5121630;27;19980;-54
2022/01/22 04:36:41;;;;;;;;;;;22.50;24.80;;;;;;5121293;27;19923;-51
2022/01/22 04:39:06;;;;;;;;;;;22.60;24.80;;;;;;5127542;27;19927;-50
2022/01/22 04:41:32;;;;;;;;;;;22.60;24.70;;;;;;5122658;27;19938;-49
2022/01/22 04:44:01;;;;;;;;;;;22.70;24.60;;;;;;5122749;27;20324;-50
2022/01/22 04:57:18;;;;;;;;;;;22.70;24.60;;;;;;5121984;27;19946;-54
2022/01/22 04:59:44;;;;;;;;;;;22.60;24.70;;;;;;5122159;27;19923;-50
2022/01/22 05:02:10;;;;;;;;;;;22.50;24.80;;;;;;5127613;27;20355;-49
2022/01/22 05:04:36;;;;;;;;;;;22.50;24.80;;;;;;5121942;27;19949;-51
2022/01/22 05:07:02;;;;;;;;;;;22.50;24.80;;;;;;5121469;27;19985;-51
2022/01/22 05:09:27;;;;;;;;;;;22.50;24.80;;;;;;5127126;27;19986;-50
2022/01/22 05:11:53;;;;;;;;;;;22.50;24.90;;;;;;5120083;27;19923;-51
2022/01/22 05:14:19;;;;;;;;;;;22.60;24.70;;;;;;5126799;27;19924;-52
2022/01/22 05:16:45;;;;;;;;;;;22.60;24.70;;;;;;5102930;27;19930;-50
2022/01/22 05:19:17;;;;;;;;;;;22.60;24.70;;;;;;5121796;27;19958;-48
2022/01/22 05:21:44;;;;;;;;;;;22.60;24.60;;;;;;5127184;27;20030;-50
2022/01/22 05:24:15;;;;;;;;;;;22.70;24.50;;;;;;5121674;27;20340;-51
2022/01/22 05:29:44;;;;;;;;;;;22.70;24.50;;;;;;5127084;27;19928;-49
2022/01/22 05:32:34;;;;;;;;;;;22.70;24.50;;;;;;5120290;27;19924;-51
2022/01/22 05:37:44;;;;;;;;;;;22.70;24.50;;;;;;5126962;27;19929;-47
2022/01/22 05:40:10;;;;;;;;;;;22.70;24.40;;;;;;5121978;27;19924;-51
2022/01/22 05:42:36;;;;;;;;;;;22.80;24.30;;;;;;5121777;27;19972;-51
2022/01/22 05:45:03;;;;;;;;;;;22.80;24.40;;;;;;5126032;27;19935;-50
2022/01/22 05:47:29;;;;;;;;;;;22.90;24.30;;;;;;5121298;27;19983;-51
2022/01/22 05:49:55;;;;;;;;;;;22.80;24.30;;;;;;5119167;27;20435;-49
2022/01/22 05:52:30;;;;;;;;;;;22.80;24.30;;;;;;5126491;27;19927;-52
2022/01/22 06:00:13;;;;;;;;;;;22.90;24.20;;;;;;5126811;28;20014;-49
2022/01/22 06:02:39;;;;;;;;;;;22.80;24.20;;;;;;5120754;28;19928;-50
2022/01/22 06:05:04;;;;;;;;;;;22.90;24.10;;;;;;5121126;27;20320;-49
2022/01/22 06:07:30;;;;;;;;;;;22.80;24.30;;;;;;5128471;27;20275;-52
2022/01/22 06:15:09;;;;;;;;;;;23.00;24.00;;;;;;5129065;27;19924;-47
2022/01/22 06:17:35;;;;;;;;;;;22.90;24.20;;;;;;5125457;27;19924;-48
2022/01/22 06:20:00;;;;;;;;;;;22.90;24.10;;;;;;5130646;27;19992;-50
2022/01/22 06:22:26;;;;;;;;;;;22.90;24.10;;;;;;5124422;27;19931;-49
2022/01/22 06:24:52;;;;;;;;;;;23.00;24.00;;;;;;5124787;27;19972;-49
2022/01/22 06:27:18;;;;;;;;;;;22.90;24.00;;;;;;5128340;27;19938;-47
2022/01/22 06:29:43;;;;;;;;;;;23.00;24.00;;;;;;5124486;27;20302;-49
2022/01/22 06:32:09;;;;;;;;;;;22.90;24.10;;;;;;5125144;27;19923;-54
2022/01/22 06:34:35;;;;;;;;;;;22.90;24.00;;;;;;5130407;27;19924;-49
2022/01/22 06:37:01;;;;;;;;;;;22.90;24.00;;;;;;5125115;27;19927;-49
2022/01/22 06:39:30;;;;;;;;;;;22.90;24.10;;;;;;5130047;27;19931;-48
2022/01/22 06:41:55;;;;;;;;;;;22.90;24.00;;;;;;5124796;27;20375;-48
2022/01/22 06:44:22;;;;;;;;;;;23.00;24.00;;;;;;5123424;27;19931;-49
2022/01/22 06:46:52;;;;;;;;;;;23.00;23.90;;;;;;5129677;27;19940;-54
2022/01/22 06:49:18;;;;;;;;;;;23.10;23.90;;;;;;5124234;27;19938;-49
2022/01/22 06:51:44;;;;;;;;;;;23.00;23.90;;;;;;5124993;27;19923;-49
2022/01/22 06:54:10;;;;;;;;;;;23.10;24.00;;;;;;5130226;27;19927;-48
2022/01/22 06:56:37;;;;;;;;;;;23.00;24.00;;;;;;5124571;27;19937;-49
2022/01/22 06:59:03;;;;;;;;;;;23.10;23.90;;;;;;5128857;27;19923;-49
2022/01/22 07:01:28;;;;;;;;;;;23.10;23.90;;;;;;5124872;27;19942;-46
2022/01/22 07:03:54;;;;;;;;;;;23.10;23.90;;;;;;5122485;27;20283;-48
2022/01/22 07:06:20;;;;;;;;;;;23.10;23.90;;;;;;5129595;27;20010;-47
2022/01/22 07:08:46;;;;;;;;;;;23.10;23.90;;;;;;5123974;27;20079;-45
2022/01/22 07:11:12;;;;;;;;;;;23.20;23.80;;;;;;5124529;27;20119;-46
2022/01/22 07:13:38;;;;;;;;;;;23.20;23.80;;;;;;5129649;27;19931;-47
2022/01/22 07:16:04;;;;;;;;;;;23.30;23.80;;;;;;5123788;27;19924;-46
2022/01/22 07:18:30;;;;;;;;;;;23.30;23.80;;;;;;5126235;27;19923;-55
2022/01/22 07:20:56;;;;;;;;;;;23.20;23.90;;;;;;5126147;27;20363;-54
2022/01/22 07:26:00;;;;;;;;;;;23.20;23.90;;;;;;5129222;27;19923;-48
2022/01/22 07:28:26;;;;;;;;;;;23.30;23.90;;;;;;5124144;27;20461;-46
2022/01/22 07:30:52;;;;;;;;;;;23.30;23.90;;;;;;5124243;27;20294;-51
2022/01/22 07:33:20;;;;;;;;;;;23.30;24.00;;;;;;5129727;27;19928;-50
2022/01/22 07:35:46;;;;;;;;;;;23.20;24.00;;;;;;5123312;27;20410;-53
2022/01/22 07:38:11;;;;;;;;;;;23.10;24.10;;;;;;5123887;27;20382;-49
2022/01/22 07:40:37;;;;;;;;;;;23.10;24.10;;;;;;5127130;27;19927;-50
2022/01/22 07:43:03;;;;;;;;;;;23.10;24.10;;;;;;5123477;27;19927;-50
2022/01/22 07:45:29;;;;;;;;;;;23.20;24.10;;;;;;5128653;27;20332;-49
2022/01/22 07:47:55;;;;;;;;;;;23.10;24.20;;;;;;5123926;27;19931;-48
2022/01/22 07:50:20;;;;;;;;;;;23.10;24.10;;;;;;5123653;27;20010;-48
2022/01/22 07:52:46;;;;;;;;;;;23.20;24.10;;;;;;5128904;27;20328;-45
2022/01/22 07:55:12;;;;;;;;;;;23.10;24.20;;;;;;5122766;27;20018;-46
2022/01/22 07:57:38;;;;;;;;;;;23.20;24.20;;;;;;5104872;27;20587;-44
2022/01/22 08:00:05;;;;;;;;;;;23.10;24.30;;;;;;5126841;27;20004;-50
2022/01/22 08:02:31;;;;;;;;;;;23.20;24.30;;;;;;5122810;27;19945;-50
2022/01/22 08:04:57;;;;;;;;;;;23.20;24.30;;;;;;5125922;27;19932;-56
2022/01/22 08:07:23;;;;;;;;;;;23.20;24.30;;;;;;5126362;27;19924;-46
2022/01/22 08:09:50;;;;;;;;;;;23.10;24.40;;;;;;5123188;27;19927;-47
2022/01/22 08:12:16;;;;;;;;;;;23.10;24.40;;;;;;5128145;27;19959;-47
2022/01/22 08:14:42;;;;;;;;;;;23.20;24.50;;;;;;5122866;27;19949;-47
2022/01/22 08:17:08;;;;;;;;;;;23.20;24.40;;;;;;5121262;27;19924;-47
2022/01/22 08:19:34;;;;;;;;;;;23.20;24.50;;;;;;5128025;27;19934;-44
2022/01/22 08:22:00;;;;;;;;;;;23.20;24.50;;;;;;5122520;27;20437;-46
2022/01/22 08:24:26;;;;;;;;;;;23.30;24.40;;;;;;5123231;27;19927;-56
2022/01/22 08:29:39;;;;;;;;;;;23.20;24.50;;;;;;5079833;27;19924;-52
2022/01/22 08:37:27;;;;;;;;;;;23.00;24.80;;;;;;5121027;27;19928;-53
2022/01/22 08:39:53;;;;;;;;;;;22.90;24.90;;;;;;5122933;27;20363;-56
2022/01/22 08:42:19;;;;;;;;;;;23.00;24.80;;;;;;5127721;27;19946;-51
2022/01/22 08:44:46;;;;;;;;;;;23.00;24.90;;;;;;5122740;27;19923;-51
2022/01/22 08:47:12;;;;;;;;;;;22.90;25.00;;;;;;5127997;27;20002;-51
2022/01/22 08:49:38;;;;;;;;;;;23.00;24.90;;;;;;5121730;27;19967;-50
2022/01/22 08:52:09;;;;;;;;;;;23.00;24.90;;;;;;5122394;27;20294;-48
2022/01/22 08:54:35;;;;;;;;;;;23.00;25.00;;;;;;5125665;27;19933;-52
2022/01/22 08:57:01;;;;;;;;;;;23.00;25.10;;;;;;5121867;27;20283;-49
2022/01/22 08:59:27;;;;;;;;;;;22.90;25.10;;;;;;5121872;27;20123;-47
2022/01/22 09:01:53;;;;;;;;;;;22.90;25.10;;;;;;5128017;27;19923;-46
2022/01/22 09:04:18;;;;;;;;;;;23.00;25.10;;;;;;5122253;27;19931;-48
2022/01/22 09:06:44;;;;;;;;;;;22.90;25.20;;;;;;5127472;27;19923;-47
2022/01/22 09:09:10;;;;;;;;;;;22.90;25.20;;;;;;5121360;27;19923;-50
2022/01/22 09:11:36;;;;;;;;;;;22.90;25.30;;;;;;5121846;27;19927;-47
2022/01/22 09:14:03;;;;;;;;;;;23.00;25.10;;;;;;5106888;27;19936;-47
2022/01/22 09:16:28;;;;;;;;;;;22.90;25.30;;;;;;5121500;27;19927;-48
2022/01/22 09:18:54;;;;;;;;;;;22.90;25.30;;;;;;5121539;27;19960;-49
2022/01/22 09:21:20;;;;;;;;;;;23.00;25.20;;;;;;5127312;27;19923;-51
2022/01/22 09:23:46;;;;;;;;;;;23.00;25.20;;;;;;5121953;27;19995;-47
2022/01/22 09:26:12;;;;;;;;;;;23.00;25.10;;;;;;5125269;27;19923;-53
2022/01/22 09:28:38;;;;;;;;;;;22.90;25.30;;;;;;5123549;27;19924;-48
2022/01/22 09:31:04;;;;;;;;;;;23.00;25.20;;;;;;5119714;27;20010;-49
2022/01/22 09:33:29;;;;;;;;;;;23.00;25.30;;;;;;5126310;27;19996;-48
2022/01/22 09:35:55;;;;;;;;;;;23.00;25.40;;;;;;5121120;27;20114;-49
2022/01/22 09:38:21;;;;;;;;;;;23.00;25.40;;;;;;5121765;27;19931;-49
2022/01/22 09:40:47;;;;;;;;;;;22.90;25.50;;;;;;5127098;27;19934;-48
2022/01/22 09:43:13;;;;;;;;;;;23.00;25.50;;;;;;5121643;27;19927;-49
2022/01/22 09:45:38;;;;;;;;;;;23.10;25.30;;;;;;5122285;27;20288;-52
2022/01/22 09:48:04;;;;;;;;;;;23.00;25.40;;;;;;5125690;27;19973;-50
2022/01/22 09:50:30;;;;;;;;;;;23.00;25.50;;;;;;5119483;27;19970;-49
2022/01/22 09:52:56;;;;;;;;;;;23.00;25.60;;;;;;5126441;27;20484;-46
2022/01/22 09:55:22;;;;;;;;;;;23.00;25.60;;;;;;5120845;27;19924;-48
2022/01/22 09:57:48;;;;;;;;;;;23.10;25.50;;;;;;5121519;27;19928;-48
2022/01/22 10:00:14;;;;;;;;;;;23.10;25.50;;;;;;5126971;27;20068;-48
2022/01/22 10:02:40;;;;;;;;;;;23.10;25.60;;;;;;5121317;28;20434;-49
2022/01/22 10:05:23;;;;;;;;;;;23.10;25.60;;;;;;5120818;28;20279;-47
2022/01/22 10:07:52;;;;;;;;;;;23.00;25.60;;;;;;5107129;28;19931;-48
2022/01/22 10:10:18;;;;;;;;;;;23.00;25.70;;;;;;5120043;28;19927;-47
2022/01/22 10:12:44;;;;;;;;;;;23.00;25.60;;;;;;5122860;28;20428;-54
2022/01/22 10:15:17;;;;;;;;;;;23.20;25.40;;;;;;5125301;28;19932;-47
2022/01/22 10:17:46;;;;;;;;;;;23.00;25.50;;;;;;5121211;28;20018;-47
2022/01/22 10:20:24;;;;;;;;;;;23.20;25.30;;;;;;5126671;28;19927;-48
2022/01/22 10:22:51;;;;;;;;;;;23.20;25.30;;;;;;5122636;28;19928;-47
2022/01/22 10:25:28;;;;;;;;;;;23.10;25.30;;;;;;5121169;28;19931;-48
2022/01/22 10:28:17;;;;;;;;;;;23.20;25.30;;;;;;5124325;28;20051;-50
2022/01/22 10:30:44;;;;;;;;;;;23.10;25.40;;;;;;5125885;28;19923;-48
2022/01/22 10:33:24;;;;;;;;;;;23.10;25.40;;;;;;5120823;28;19927;-48
2022/01/22 10:35:50;;;;;;;;;;;23.10;25.50;;;;;;5126191;28;19931;-52
2022/01/22 10:38:19;;;;;;;;;;;23.20;25.30;;;;;;5121854;28;20023;-44
2022/01/22 10:40:45;;;;;;;;;;;23.30;25.30;;;;;;5120135;28;19924;-47
2022/01/22 10:43:19;;;;;;;;;;;23.30;25.40;;;;;;5126017;28;19934;-47
2022/01/22 10:46:14;;;;;;;;;;;23.30;25.20;;;;;;5119112;28;19924;-52
2022/01/22 10:48:58;;;;;;;;;;;23.30;25.30;;;;;;5120306;28;20513;-49
2022/01/22 10:51:25;;;;;;;;;;;23.20;25.40;;;;;;5122972;27;20418;-53
2022/01/22 10:53:51;;;;;;;;;;;23.20;25.60;;;;;;5128204;27;20388;-47
2022/01/22 10:56:19;;;;;;;;;;;23.10;25.60;;;;;;5124482;27;19967;-48
2022/01/22 10:59:05;;;;;;;;;;;23.10;25.60;;;;;;5129733;27;19927;-48
2022/01/22 11:01:32;;;;;;;;;;;23.20;25.50;;;;;;5125815;27;19923;-46
2022/01/22 11:04:08;;;;;;;;;;;23.30;25.40;;;;;;5122541;27;19952;-50
2022/01/22 11:06:34;;;;;;;;;;;23.30;25.40;;;;;;5129403;27;19927;-48
2022/01/22 11:09:00;;;;;;;;;;;23.30;25.40;;;;;;5123991;27;20385;-46
2022/01/22 11:11:26;;;;;;;;;;;23.30;25.40;;;;;;5124548;27;19924;-46
2022/01/22 11:13:52;;;;;;;;;;;23.30;25.50;;;;;;5130115;27;20408;-51
2022/01/22 11:16:17;;;;;;;;;;;23.30;25.40;;;;;;5105512;27;20359;-47
2022/01/22 11:18:44;;;;;;;;;;;23.30;25.60;;;;;;5123300;27;19984;-47
2022/01/22 11:21:10;;;;;;;;;;;23.20;25.80;;;;;;5110999;27;20031;-46
2022/01/22 11:23:36;;;;;;;;;;;23.20;25.80;;;;;;5122089;27;20489;-45
2022/01/22 11:26:02;;;;;;;;;;;23.30;25.80;;;;;;5129117;27;19927;-48
2022/01/22 11:28:28;;;;;;;;;;;23.30;25.70;;;;;;5123857;27;20305;-48
2022/01/22 11:30:54;;;;;;;;;;;23.20;25.90;;;;;;5124278;27;19924;-46
2022/01/22 11:33:21;;;;;;;;;;;23.30;25.90;;;;;;5129369;27;19924;-47
2022/01/22 11:35:57;;;;;;;;;;;23.20;26.00;;;;;;5123516;27;19931;-48
2022/01/22 11:38:27;;;;;;;;;;;23.30;26.00;;;;;;5105101;27;19979;-50
2022/01/22 11:41:02;;;;;;;;;;;23.20;26.10;;;;;;5109435;27;20078;-51
2022/01/22 11:43:50;;;;;;;;;;;23.30;26.10;;;;;;5123104;27;19927;-45
2022/01/22 11:46:28;;;;;;;;;;;23.20;26.20;;;;;;5123245;27;19929;-51
2022/01/22 11:49:12;;;;;;;;;;;23.30;26.00;;;;;;5129277;27;19923;-46
2022/01/22 11:51:38;;;;;;;;;;;23.30;25.90;;;;;;5123583;27;19927;-47
2022/01/22 11:54:03;;;;;;;;;;;23.30;26.00;;;;;;5123415;27;19931;-48
2022/01/22 11:56:30;;;;;;;;;;;23.30;26.10;;;;;;5128547;27;20413;-48
2022/01/22 11:58:56;;;;;;;;;;;23.30;26.10;;;;;;5122622;27;20463;-49
2022/01/22 12:01:40;;;;;;;;;;;23.20;26.10;;;;;;5122226;27;20215;-48
2022/01/22 12:04:06;;;;;;;;;;;23.20;26.10;;;;;;5127347;27;19924;-47
2022/01/22 12:06:32;;;;;;;;;;;23.30;25.90;;;;;;5123501;27;19923;-47
2022/01/22 12:09:06;;;;;;;;;;;23.30;25.90;;;;;;5123590;27;19923;-49
2022/01/22 12:14:41;;;;;;;;;;;23.30;25.80;;;;;;5123253;27;19927;-51
2022/01/22 12:17:13;;;;;;;;;;;23.20;25.80;;;;;;5122838;27;20379;-52
2022/01/22 12:19:47;;;;;;;;;;;23.00;26.00;;;;;;5126629;27;20067;-53
2022/01/22 12:22:31;;;;;;;;;;;23.00;26.00;;;;;;5122633;27;20367;-52
2022/01/22 12:24:59;;;;;;;;;;;22.80;26.30;;;;;;5123124;27;19934;-54
2022/01/22 12:27:43;;;;;;;;;;;22.90;26.20;;;;;;5128606;27;20306;-53
2022/01/22 12:30:09;;;;;;;;;;;23.00;26.10;;;;;;5122831;27;19950;-55
2022/01/22 12:32:47;;;;;;;;;;;23.10;26.00;;;;;;5122123;27;20375;-54
2022/01/22 12:35:17;;;;;;;;;;;22.90;26.10;;;;;;5128158;27;19927;-52
2022/01/22 12:37:47;;;;;;;;;;;22.90;26.10;;;;;;5116658;27;20311;-54
2022/01/22 12:40:13;;;;;;;;;;;23.00;25.90;;;;;;5122257;27;20843;-51
2022/01/22 12:42:47;;;;;;;;;;;22.90;25.90;;;;;;5127661;27;19987;-51
2022/01/22 12:45:13;;;;;;;;;;;23.00;26.00;;;;;;5122805;27;20309;-50
2022/01/22 12:47:43;;;;;;;;;;;22.90;26.10;;;;;;5122494;27;19941;-55
2022/01/22 12:50:09;;;;;;;;;;;23.00;26.00;;;;;;5108413;27;19931;-57
2022/01/22 12:52:36;;;;;;;;;;;22.90;26.00;;;;;;5122080;27;19928;-51
2022/01/22 12:55:13;;;;;;;;;;;22.90;26.00;;;;;;5126312;27;19924;-52
2022/01/22 12:57:42;;;;;;;;;;;23.00;25.90;;;;;;5123706;27;19961;-52
2022/01/22 13:00:17;;;;;;;;;;;23.10;25.80;;;;;;5121783;27;20002;-50
2022/01/22 13:02:44;;;;;;;;;;;23.10;25.70;;;;;;5127789;27;19924;-49
2022/01/22 13:05:10;;;;;;;;;;;23.10;25.70;;;;;;5122293;27;19923;-52
2022/01/22 13:07:36;;;;;;;;;;;23.10;25.70;;;;;;5121826;27;19924;-51
2022/01/22 13:10:06;;;;;;;;;;;23.10;25.70;;;;;;5108474;27;20014;-52
2022/01/22 13:12:34;;;;;;;;;;;23.20;25.60;;;;;;5121970;27;20429;-51
2022/01/22 13:15:00;;;;;;;;;;;23.20;25.60;;;;;;5119780;27;19970;-52
2022/01/22 13:17:29;;;;;;;;;;;23.10;25.70;;;;;;5108587;27;19931;-51
2022/01/22 13:19:55;;;;;;;;;;;23.20;25.60;;;;;;5121484;27;19927;-52
2022/01/22 13:22:29;;;;;;;;;;;23.20;25.60;;;;;;5105579;27;19924;-53
2022/01/22 13:25:02;;;;;;;;;;;23.20;25.60;;;;;;5127423;27;19930;-50
2022/01/22 13:27:29;;;;;;;;;;;23.30;25.60;;;;;;5102882;27;19980;-52
2022/01/22 13:29:56;;;;;;;;;;;23.30;25.50;;;;;;5126795;27;19928;-49
2022/01/22 13:34:57;;;;;;;;;;;23.30;25.50;;;;;;5121092;27;19940;-50
2022/01/22 13:47:40;;;;;;;;;;;23.30;25.60;;;;;;5109696;27;19930;-49
2022/01/22 13:48:06;;;;;;;;;;;23.30;25.50;;;;;;5122462;27;19952;-52
2022/01/22 13:50:32;;;;;;;;;;;23.10;25.70;;;;;;5101647;27;19923;-53
2022/01/22 13:52:58;;;;;;;;;;;23.10;25.80;;;;;;5125897;27;19963;-52
2022/01/22 13:55:24;;;;;;;;;;;23.10;25.80;;;;;;5102554;28;19934;-53
2022/01/22 13:57:51;;;;;;;;;;;23.10;25.80;;;;;;5121592;27;19949;-52
2022/01/22 14:00:17;;;;;;;;;;;23.00;25.80;;;;;;5127018;27;19927;-53
2022/01/22 14:03:19;;;;;;;;;;;23.00;25.90;;;;;;5121218;28;20398;-53
2022/01/22 14:05:31;;;;;;;;;;;23.10;25.80;;;;;;5119992;28;19927;-52
2022/01/22 14:07:58;;;;;;;;;;;23.10;25.80;;;;;;5126855;28;19927;-53
2022/01/22 14:10:26;;;;;;;;;;;23.00;25.90;;;;;;5118931;28;20024;-52
2022/01/22 14:12:57;;;;;;;;;;;23.10;25.80;;;;;;5121053;28;20422;-54
2022/01/22 14:15:23;;;;;;;;;;;23.00;25.80;;;;;;5126436;28;20294;-50
2022/01/22 14:18:10;;;;;;;;;;;23.10;25.80;;;;;;5121109;28;19927;-53
2022/01/22 14:20:36;;;;;;;;;;;23.10;25.80;;;;;;5121006;28;19923;-51
2022/01/22 14:23:04;;;;;;;;;;;23.20;25.70;;;;;;5125935;28;19929;-51
2022/01/22 14:25:36;;;;;;;;;;;23.10;25.70;;;;;;5120958;28;19987;-50
2022/01/22 14:28:08;;;;;;;;;;;23.20;25.70;;;;;;5127241;27;19929;-51
2022/01/22 14:30:36;;;;;;;;;;;23.10;25.70;;;;;;5126993;27;20021;-50
2022/01/22 14:33:01;;;;;;;;;;;23.20;25.60;;;;;;5124658;27;19923;-49
2022/01/22 14:35:27;;;;;;;;;;;23.20;25.60;;;;;;5130573;27;19928;-50
2022/01/22 14:37:56;;;;;;;;;;;23.20;25.60;;;;;;5125127;27;19949;-47
2022/01/22 14:45:57;;;;;;;;;;;23.30;25.50;;;;;;5123899;27;19935;-49
2022/01/22 14:48:23;;;;;;;;;;;23.30;25.50;;;;;;5123638;27;19923;-54
2022/01/22 14:50:49;;;;;;;;;;;23.20;25.60;;;;;;5129700;27;19934;-52
2022/01/22 14:53:14;;;;;;;;;;;23.00;25.80;;;;;;5124864;27;19930;-52
2022/01/22 14:55:50;;;;;;;;;;;23.10;25.70;;;;;;5124944;27;20021;-53
2022/01/22 14:58:16;;;;;;;;;;;23.10;25.70;;;;;;5130118;27;19998;-52
2022/01/22 15:00:42;;;;;;;;;;;23.10;25.60;;;;;;5123790;27;19928;-53
2022/01/22 15:03:07;;;;;;;;;;;23.10;25.70;;;;;;5124578;27;19942;-55
2022/01/22 15:05:33;;;;;;;;;;;23.20;25.60;;;;;;5127810;27;19930;-52
2022/01/22 15:07:59;;;;;;;;;;;23.20;25.60;;;;;;5124076;27;20310;-52
2022/01/22 15:10:25;;;;;;;;;;;23.20;25.50;;;;;;5129281;27;19993;-49
2022/01/22 15:12:50;;;;;;;;;;;23.30;25.50;;;;;;5124348;27;19963;-48
2022/01/22 15:15:19;;;;;;;;;;;23.20;25.60;;;;;;5124538;27;19923;-50
2022/01/22 15:20:14;;;;;;;;;;;23.20;25.60;;;;;;5123584;27;19923;-50
2022/01/22 15:22:39;;;;;;;;;;;23.10;25.70;;;;;;5123622;27;20199;-54
2022/01/22 15:25:05;;;;;;;;;;;23.20;25.70;;;;;;5127659;27;19977;-50
2022/01/22 15:27:31;;;;;;;;;;;23.30;25.60;;;;;;5123682;27;19923;-48
2022/01/22 15:30:00;;;;;;;;;;;23.20;25.60;;;;;;5129378;27;19972;-50
2022/01/22 15:35:02;;;;;;;;;;;23.30;25.50;;;;;;5123947;27;19923;-51
2022/01/22 15:37:28;;;;;;;;;;;23.30;25.50;;;;;;5128300;27;20288;-47
2022/01/22 15:39:54;;;;;;;;;;;23.30;25.50;;;;;;5123566;27;19977;-49
2022/01/22 15:42:20;;;;;;;;;;;23.30;25.50;;;;;;5122136;27;19934;-55
2022/01/22 15:44:45;;;;;;;;;;;23.10;25.70;;;;;;5129030;27;19923;-54
2022/01/22 15:47:11;;;;;;;;;;;23.00;25.90;;;;;;5123538;27;19988;-56
2022/01/22 15:49:40;;;;;;;;;;;22.90;26.00;;;;;;5123761;27;19923;-51
2022/01/22 15:52:06;;;;;;;;;;;22.90;26.10;;;;;;5129233;27;19923;-51
2022/01/22 15:54:32;;;;;;;;;;;23.00;25.90;;;;;;5105283;27;19941;-49
2022/01/22 15:56:59;;;;;;;;;;;22.90;26.00;;;;;;5128203;27;19938;-51
2022/01/22 15:59:25;;;;;;;;;;;23.00;26.00;;;;;;5123403;27;19971;-50
2022/01/22 16:01:50;;;;;;;;;;;22.90;26.00;;;;;;5121302;27;19932;-53
2022/01/22 16:04:17;;;;;;;;;;;23.00;25.90;;;;;;5109965;27;20344;-51
2022/01/22 16:06:59;;;;;;;;;;;23.00;25.90;;;;;;5123202;27;19943;-51
2022/01/22 16:09:26;;;;;;;;;;;23.00;25.80;;;;;;5123289;27;20400;-51
2022/01/22 16:11:52;;;;;;;;;;;23.00;25.80;;;;;;5128763;27;19930;-52
2022/01/22 16:14:17;;;;;;;;;;;23.10;25.70;;;;;;5122578;27;19923;-52
2022/01/22 16:16:44;;;;;;;;;;;23.10;25.80;;;;;;5123032;27;19930;-51
2022/01/22 16:19:10;;;;;;;;;;;23.10;25.70;;;;;;5126843;27;19930;-52